YSTW

Tamworth Airport

Tamworth, Australia
TAF YSTW 211517Z 2118/2212 11005KT CAVOK FM220300 30005KT CAVOK FM221000 09005KT CAVOK
Issued Valid From Valid To
Jun-21 @ 15:17 UTC
(3 hours ago)
Jun-21 @ 18:00 UTC
(3 minutes ago)
Jun-22 @ 12:00 UTC
(in 18 hours)
Jun-21 @ 18:00 to Jun-22 @ 03:00
TAF YSTW 211517Z 2118/2212 11005KT CAVOK
Wind Visibility Clouds Conditions
110° at 5 knots 10,000+ meters
  • No significant clouds
From Jun-22 @ 03:00 to Jun-22 @ 10:00
FM220300 30005KT CAVOK
Wind Visibility Clouds Conditions
300° at 5 knots 10,000+ meters
  • No significant clouds
From Jun-22 @ 10:00 to Jun-22 @ 12:00
FM221000 09005KT CAVOK
Wind Visibility Clouds Conditions
90° at 5 knots 10,000+ meters
  • No significant clouds
TAF YSTW 211517Z 2118/2212 11005KT CAVOK FM220300 30005KT CAVOK FM221000 09005KT CAVOK
Issued Jun-21 @ 15:17 UTC
(3 hours ago)
Valid From Jun-21 @ 18:00 UTC
(3 minutes ago)
Valid To Jun-22 @ 12:00 UTC
(in 18 hours)
Jun-21 @ 18:00 - Jun-22 @ 03:00
Wind Visibility
110° at 5 knots 10,000+ meters
Clouds
  • No significant clouds
Conditions
From Jun-22 @ 03:00 - Jun-22 @ 10:00
Wind Visibility
300° at 5 knots 10,000+ meters
Clouds
  • No significant clouds
Conditions
From Jun-22 @ 10:00 - Jun-22 @ 12:00
Wind Visibility
90° at 5 knots 10,000+ meters
Clouds
  • No significant clouds
Conditions